sensor_id;sensor_type;location;lat;lon;timestamp;temperature;humidity
4293;DHT22;2160;51.172;6.808;2024-03-02T05:02:27;10.90;99.90
4293;DHT22;2160;51.172;6.808;2024-03-02T05:04:54;10.80;99.90
4293;DHT22;2160;51.172;6.808;2024-03-02T05:07:21;10.80;99.90
4293;DHT22;2160;51.172;6.808;2024-03-02T05:09:48;10.90;99.90
4293;DHT22;2160;51.172;6.808;2024-03-02T05:12:15;10.90;99.90
4293;DHT22;2160;51.172;6.808;2024-03-02T05:15:06;10.80;99.90
4293;DHT22;2160;51.172;6.808;2024-03-02T05:17:37;10.70;99.90
4293;DHT22;2160;51.172;6.808;2024-03-02T05:20:05;10.80;99.90
4293;DHT22;2160;51.172;6.808;2024-03-02T05:22:33;10.70;99.90
4293;DHT22;2160;51.172;6.808;2024-03-02T05:25:00;10.80;99.90
4293;DHT22;2160;51.172;6.808;2024-03-02T05:27:28;10.80;99.90
4293;DHT22;2160;51.172;6.808;2024-03-02T05:29:55;10.70;99.90
4293;DHT22;2160;51.172;6.808;2024-03-02T05:32:22;10.80;99.90
4293;DHT22;2160;51.172;6.808;2024-03-02T05:34:50;10.70;99.90
4293;DHT22;2160;51.172;6.808;2024-03-02T05:37:17;10.60;99.90
4293;DHT22;2160;51.172;6.808;2024-03-02T05:39:45;10.60;99.90
4293;DHT22;2160;51.172;6.808;2024-03-02T05:42:12;10.60;99.90
4293;DHT22;2160;51.172;6.808;2024-03-02T05:44:39;10.60;99.90
4293;DHT22;2160;51.172;6.808;2024-03-02T05:47:06;10.60;99.90
4293;DHT22;2160;51.172;6.808;2024-03-02T05:49:34;10.60;99.90
4293;DHT22;2160;51.172;6.808;2024-03-02T05:52:02;10.60;99.90
4293;DHT22;2160;51.172;6.808;2024-03-02T05:54:29;10.60;99.90
4293;DHT22;2160;51.172;6.808;2024-03-02T05:56:57;10.60;99.90
4293;DHT22;2160;51.172;6.808;2024-03-02T05:59:42;10.60;99.90
4293;DHT22;2160;51.172;6.808;2024-03-02T06:02:09;10.60;99.90
4293;DHT22;2160;51.172;6.808;2024-03-02T06:04:36;10.70;99.90
4293;DHT22;2160;51.172;6.808;2024-03-02T06:07:04;10.60;99.90
4293;DHT22;2160;51.172;6.808;2024-03-02T06:09:31;10.60;99.90
4293;DHT22;2160;51.172;6.808;2024-03-02T06:11:58;10.70;99.90
4293;DHT22;2160;51.172;6.808;2024-03-02T06:14:26;10.70;99.90
4293;DHT22;2160;51.172;6.808;2024-03-02T06:16:53;10.70;99.90
4293;DHT22;2160;51.172;6.808;2024-03-02T06:19:19;10.60;99.90
4293;DHT22;2160;51.172;6.808;2024-03-02T06:21:47;10.80;99.90
4293;DHT22;2160;51.172;6.808;2024-03-02T06:24:15;10.90;99.90
4293;DHT22;2160;51.172;6.808;2024-03-02T06:26:42;10.90;99.90
4293;DHT22;2160;51.172;6.808;2024-03-02T06:29:09;10.80;99.90
4293;DHT22;2160;51.172;6.808;2024-03-02T06:31:36;10.60;99.90
4293;DHT22;2160;51.172;6.808;2024-03-02T06:34:03;10.60;99.90
4293;DHT22;2160;51.172;6.808;2024-03-02T06:36:30;10.70;99.90
4293;DHT22;2160;51.172;6.808;2024-03-02T06:38:57;10.60;99.90
4293;DHT22;2160;51.172;6.808;2024-03-02T06:41:25;10.70;99.90
4293;DHT22;2160;51.172;6.808;2024-03-02T06:43:53;10.70;99.90
4293;DHT22;2160;51.172;6.808;2024-03-02T06:46:25;10.80;99.90
4293;DHT22;2160;51.172;6.808;2024-03-02T06:48:52;10.90;99.90
4293;DHT22;2160;51.172;6.808;2024-03-02T06:51:19;10.80;99.90
4293;DHT22;2160;51.172;6.808;2024-03-02T06:53:46;10.90;99.90
4293;DHT22;2160;51.172;6.808;2024-03-02T06:56:13;11.00;99.90
4293;DHT22;2160;51.172;6.808;2024-03-02T06:58:41;11.00;99.90
4293;DHT22;2160;51.172;6.808;2024-03-02T07:01:08;11.00;99.90
4293;DHT22;2160;51.172;6.808;2024-03-02T07:03:36;11.10;99.90
4293;DHT22;2160;51.172;6.808;2024-03-02T07:06:05;11.20;99.90
4293;DHT22;2160;51.172;6.808;2024-03-02T07:08:32;11.30;99.90
4293;DHT22;2160;51.172;6.808;2024-03-02T07:10:59;11.20;99.90
4293;DHT22;2160;51.172;6.808;2024-03-02T07:13:27;11.40;99.90
4293;DHT22;2160;51.172;6.808;2024-03-02T07:15:55;11.40;99.90
4293;DHT22;2160;51.172;6.808;2024-03-02T07:18:47;11.40;99.90
4293;DHT22;2160;51.172;6.808;2024-03-02T07:21:17;11.40;99.90
4293;DHT22;2160;51.172;6.808;2024-03-02T07:23:44;11.50;99.90
4293;DHT22;2160;51.172;6.808;2024-03-02T07:26:11;11.50;99.90
4293;DHT22;2160;51.172;6.808;2024-03-02T07:28:38;11.60;99.90
4293;DHT22;2160;51.172;6.808;2024-03-02T07:31:07;11.70;99.90
4293;DHT22;2160;51.172;6.808;2024-03-02T07:33:35;11.70;99.90
4293;DHT22;2160;51.172;6.808;2024-03-02T07:36:02;11.80;99.90
4293;DHT22;2160;51.172;6.808;2024-03-02T07:38:30;11.70;99.90
4293;DHT22;2160;51.172;6.808;2024-03-02T07:40:57;11.80;99.90
4293;DHT22;2160;51.172;6.808;2024-03-02T07:43:24;12.00;99.90
4293;DHT22;2160;51.172;6.808;2024-03-02T07:45:51;12.10;99.90
4293;DHT22;2160;51.172;6.808;2024-03-02T07:48:20;12.10;99.90
4293;DHT22;2160;51.172;6.808;2024-03-02T07:50:47;12.20;99.90
4293;DHT22;2160;51.172;6.808;2024-03-02T07:53:14;12.30;99.90
4293;DHT22;2160;51.172;6.808;2024-03-02T07:55:41;12.50;99.90
4293;DHT22;2160;51.172;6.808;2024-03-02T07:58:08;12.50;99.90
4293;DHT22;2160;51.172;6.808;2024-03-02T08:00:38;12.40;99.90
4293;DHT22;2160;51.172;6.808;2024-03-02T08:03:06;12.30;99.90
4293;DHT22;2160;51.172;6.808;2024-03-02T08:05:36;12.40;99.90
4293;DHT22;2160;51.172;6.808;2024-03-02T08:08:04;12.50;99.90
4293;DHT22;2160;51.172;6.808;2024-03-02T08:10:31;12.60;99.90
4293;DHT22;2160;51.172;6.808;2024-03-02T08:12:59;12.80;99.90
4293;DHT22;2160;51.172;6.808;2024-03-02T08:15:26;12.90;99.90
4293;DHT22;2160;51.172;6.808;2024-03-02T08:17:53;12.90;99.90
4293;DHT22;2160;51.172;6.808;2024-03-02T08:20:20;13.00;99.90
4293;DHT22;2160;51.172;6.808;2024-03-02T08:22:48;13.00;99.90
4293;DHT22;2160;51.172;6.808;2024-03-02T08:25:16;12.90;99.90
4293;DHT22;2160;51.172;6.808;2024-03-02T08:27:43;13.10;99.90
4293;DHT22;2160;51.172;6.808;2024-03-02T08:30:11;13.20;99.90
4293;DHT22;2160;51.172;6.808;2024-03-02T08:32:39;13.30;99.90
4293;DHT22;2160;51.172;6.808;2024-03-02T08:35:06;13.40;99.90
4293;DHT22;2160;51.172;6.808;2024-03-02T08:37:33;13.50;99.90
4293;DHT22;2160;51.172;6.808;2024-03-02T08:40:02;13.70;99.90
4293;DHT22;2160;51.172;6.808;2024-03-02T08:42:33;13.60;99.90
4293;DHT22;2160;51.172;6.808;2024-03-02T08:45:00;13.30;99.90
4293;DHT22;2160;51.172;6.808;2024-03-02T08:47:27;13.30;99.90
4293;DHT22;2160;51.172;6.808;2024-03-02T08:49:54;13.30;99.90
4293;DHT22;2160;51.172;6.808;2024-03-02T08:52:21;13.20;99.90
4293;DHT22;2160;51.172;6.808;2024-03-02T08:54:48;13.10;99.90
4293;DHT22;2160;51.172;6.808;2024-03-02T08:57:17;13.00;99.90
4293;DHT22;2160;51.172;6.808;2024-03-02T08:59:44;12.90;99.90
4293;DHT22;2160;51.172;6.808;2024-03-02T09:02:11;13.00;99.90
4293;DHT22;2160;51.172;6.808;2024-03-02T09:04:38;13.00;99.90
4293;DHT22;2160;51.172;6.808;2024-03-02T09:07:05;13.20;99.90
4293;DHT22;2160;51.172;6.808;2024-03-02T09:09:33;13.20;99.90
4293;DHT22;2160;51.172;6.808;2024-03-02T09:12:00;13.30;99.90
4293;DHT22;2160;51.172;6.808;2024-03-02T09:14:29;13.30;99.90
4293;DHT22;2160;51.172;6.808;2024-03-02T09:16:59;13.40;99.90
4293;DHT22;2160;51.172;6.808;2024-03-02T09:19:26;13.50;99.90
4293;DHT22;2160;51.172;6.808;2024-03-02T09:21:53;13.60;99.90
4293;DHT22;2160;51.172;6.808;2024-03-02T09:24:21;13.80;99.90
4293;DHT22;2160;51.172;6.808;2024-03-02T09:26:48;13.50;99.90
4293;DHT22;2160;51.172;6.808;2024-03-02T09:29:15;13.50;99.90
4293;DHT22;2160;51.172;6.808;2024-03-02T09:31:43;13.50;99.90
4293;DHT22;2160;51.172;6.808;2024-03-02T09:34:10;13.70;99.90
4293;DHT22;2160;51.172;6.808;2024-03-02T09:36:37;13.80;99.90
4293;DHT22;2160;51.172;6.808;2024-03-02T09:39:04;13.90;99.90
4293;DHT22;2160;51.172;6.808;2024-03-02T09:41:33;14.00;99.90
4293;DHT22;2160;51.172;6.808;2024-03-02T09:44:00;14.00;99.90
4293;DHT22;2160;51.172;6.808;2024-03-02T09:46:27;14.00;99.90
4293;DHT22;2160;51.172;6.808;2024-03-02T09:48:55;13.80;99.90
4293;DHT22;2160;51.172;6.808;2024-03-02T09:51:23;13.90;99.90
4293;DHT22;2160;51.172;6.808;2024-03-02T09:53:50;14.00;99.90
4293;DHT22;2160;51.172;6.808;2024-03-02T09:56:18;14.30;99.90
4293;DHT22;2160;51.172;6.808;2024-03-02T09:58:45;14.30;99.90
4293;DHT22;2160;51.172;6.808;2024-03-02T10:01:12;14.40;99.90
4293;DHT22;2160;51.172;6.808;2024-03-02T10:03:40;14.30;99.90
4293;DHT22;2160;51.172;6.808;2024-03-02T10:06:22;14.40;99.90
4293;DHT22;2160;51.172;6.808;2024-03-02T10:08:49;14.70;99.90
4293;DHT22;2160;51.172;6.808;2024-03-02T10:11:27;14.60;99.90
4293;DHT22;2160;51.172;6.808;2024-03-02T10:14:08;14.70;99.90
4293;DHT22;2160;51.172;6.808;2024-03-02T10:16:36;14.80;99.90
4293;DHT22;2160;51.172;6.808;2024-03-02T10:19:19;15.00;99.90
4293;DHT22;2160;51.172;6.808;2024-03-02T10:21:49;15.10;99.90
4293;DHT22;2160;51.172;6.808;2024-03-02T10:24:16;15.10;99.90
4293;DHT22;2160;51.172;6.808;2024-03-02T10:26:42;15.20;99.90
4293;DHT22;2160;51.172;6.808;2024-03-02T10:29:09;15.30;99.90
4293;DHT22;2160;51.172;6.808;2024-03-02T10:31:37;15.50;99.90
4293;DHT22;2160;51.172;6.808;2024-03-02T10:34:05;15.60;99.90
4293;DHT22;2160;51.172;6.808;2024-03-02T10:36:33;15.60;99.90
4293;DHT22;2160;51.172;6.808;2024-03-02T10:39:04;15.60;99.90
4293;DHT22;2160;51.172;6.808;2024-03-02T10:41:33;15.50;99.90
4293;DHT22;2160;51.172;6.808;2024-03-02T10:44:02;15.50;99.90
4293;DHT22;2160;51.172;6.808;2024-03-02T10:46:31;15.60;99.90
4293;DHT22;2160;51.172;6.808;2024-03-02T10:48:59;15.50;99.90
4293;DHT22;2160;51.172;6.808;2024-03-02T10:51:26;15.60;99.90
4293;DHT22;2160;51.172;6.808;2024-03-02T10:53:58;15.70;99.60
4293;DHT22;2160;51.172;6.808;2024-03-02T10:56:30;15.80;99.80
4293;DHT22;2160;51.172;6.808;2024-03-02T10:59:02;15.70;99.70
4293;DHT22;2160;51.172;6.808;2024-03-02T11:01:32;15.60;99.70
4293;DHT22;2160;51.172;6.808;2024-03-02T11:04:02;15.60;99.90
4293;DHT22;2160;51.172;6.808;2024-03-02T11:06:30;15.60;99.90
4293;DHT22;2160;51.172;6.808;2024-03-02T11:09:04;15.90;99.90
4293;DHT22;2160;51.172;6.808;2024-03-02T11:11:37;16.10;99.90
4293;DHT22;2160;51.172;6.808;2024-03-02T11:14:07;16.10;99.80
4293;DHT22;2160;51.172;6.808;2024-03-02T11:16:38;16.00;99.00
4293;DHT22;2160;51.172;6.808;2024-03-02T11:19:09;16.00;99.10
4293;DHT22;2160;51.172;6.808;2024-03-02T11:21:37;15.90;97.90
4293;DHT22;2160;51.172;6.808;2024-03-02T11:24:33;16.10;98.20
4293;DHT22;2160;51.172;6.808;2024-03-02T11:27:03;16.20;97.50
4293;DHT22;2160;51.172;6.808;2024-03-02T11:29:46;16.30;98.30
4293;DHT22;2160;51.172;6.808;2024-03-02T11:32:17;16.20;97.00
4293;DHT22;2160;51.172;6.808;2024-03-02T11:34:46;16.20;97.20
4293;DHT22;2160;51.172;6.808;2024-03-02T11:37:15;16.20;97.00
4293;DHT22;2160;51.172;6.808;2024-03-02T11:39:45;16.30;96.50
4293;DHT22;2160;51.172;6.808;2024-03-02T11:42:15;16.40;96.10
4293;DHT22;2160;51.172;6.808;2024-03-02T11:44:43;16.60;97.00
4293;DHT22;2160;51.172;6.808;2024-03-02T11:47:13;16.70;97.80
4293;DHT22;2160;51.172;6.808;2024-03-02T11:49:45;16.70;96.30
4293;DHT22;2160;51.172;6.808;2024-03-02T11:52:13;16.90;97.40
4293;DHT22;2160;51.172;6.808;2024-03-02T11:54:42;16.90;97.70
4293;DHT22;2160;51.172;6.808;2024-03-02T11:57:15;17.00;97.40
4293;DHT22;2160;51.172;6.808;2024-03-02T11:59:42;16.90;96.80
4293;DHT22;2160;51.172;6.808;2024-03-02T12:02:15;16.90;96.20
4293;DHT22;2160;51.172;6.808;2024-03-02T12:04:43;17.00;96.20
4293;DHT22;2160;51.172;6.808;2024-03-02T12:07:11;17.10;95.60
4293;DHT22;2160;51.172;6.808;2024-03-02T12:09:38;17.30;95.30
4293;DHT22;2160;51.172;6.808;2024-03-02T12:12:06;17.40;96.00
4293;DHT22;2160;51.172;6.808;2024-03-02T12:14:36;17.50;94.60
4293;DHT22;2160;51.172;6.808;2024-03-02T12:17:03;17.60;95.80
4293;DHT22;2160;51.172;6.808;2024-03-02T12:19:32;17.70;94.60
4293;DHT22;2160;51.172;6.808;2024-03-02T12:21:59;17.60;94.30
4293;DHT22;2160;51.172;6.808;2024-03-02T12:24:30;17.80;94.20
4293;DHT22;2160;51.172;6.808;2024-03-02T12:26:57;17.80;94.50
4293;DHT22;2160;51.172;6.808;2024-03-02T12:29:24;18.00;94.70
4293;DHT22;2160;51.172;6.808;2024-03-02T12:31:53;17.90;93.70
4293;DHT22;2160;51.172;6.808;2024-03-02T12:34:21;18.00;94.10
4293;DHT22;2160;51.172;6.808;2024-03-02T12:36:49;18.10;94.40
4293;DHT22;2160;51.172;6.808;2024-03-02T12:39:19;18.20;94.50
4293;DHT22;2160;51.172;6.808;2024-03-02T12:41:47;18.20;94.10
4293;DHT22;2160;51.172;6.808;2024-03-02T12:44:16;18.20;93.40
4293;DHT22;2160;51.172;6.808;2024-03-02T12:46:43;18.20;93.70
4293;DHT22;2160;51.172;6.808;2024-03-02T12:49:13;18.40;93.10
4293;DHT22;2160;51.172;6.808;2024-03-02T12:51:42;18.50;92.50
4293;DHT22;2160;51.172;6.808;2024-03-02T12:54:10;18.50;93.00
4293;DHT22;2160;51.172;6.808;2024-03-02T12:56:37;18.40;92.80
4293;DHT22;2160;51.172;6.808;2024-03-02T12:59:05;18.30;92.30
4293;DHT22;2160;51.172;6.808;2024-03-02T13:01:32;18.20;93.30
4293;DHT22;2160;51.172;6.808;2024-03-02T13:03:59;18.30;93.40
4293;DHT22;2160;51.172;6.808;2024-03-02T13:06:27;18.10;92.90
4293;DHT22;2160;51.172;6.808;2024-03-02T13:08:54;17.90;92.90
4293;DHT22;2160;51.172;6.808;2024-03-02T13:11:22;17.60;93.40
4293;DHT22;2160;51.172;6.808;2024-03-02T13:13:50;17.50;93.70
4293;DHT22;2160;51.172;6.808;2024-03-02T13:16:18;17.60;93.60
4293;DHT22;2160;51.172;6.808;2024-03-02T13:18:45;17.40;92.90
4293;DHT22;2160;51.172;6.808;2024-03-02T13:21:13;17.40;92.90
4293;DHT22;2160;51.172;6.808;2024-03-02T13:23:41;17.70;93.90
4293;DHT22;2160;51.172;6.808;2024-03-02T13:26:08;17.80;93.00
4293;DHT22;2160;51.172;6.808;2024-03-02T13:28:38;17.70;92.50
4293;DHT22;2160;51.172;6.808;2024-03-02T13:31:06;17.80;93.80
4293;DHT22;2160;51.172;6.808;2024-03-02T13:33:33;18.00;93.80
4293;DHT22;2160;51.172;6.808;2024-03-02T13:36:00;18.30;93.50
4293;DHT22;2160;51.172;6.808;2024-03-02T13:38:28;18.70;92.90
4293;DHT22;2160;51.172;6.808;2024-03-02T13:40:57;18.90;92.80
4293;DHT22;2160;51.172;6.808;2024-03-02T13:43:29;18.90;91.40
4293;DHT22;2160;51.172;6.808;2024-03-02T13:45:57;19.00;92.40
4293;DHT22;2160;51.172;6.808;2024-03-02T13:48:24;18.70;91.50
4293;DHT22;2160;51.172;6.808;2024-03-02T13:50:52;18.60;91.90
4293;DHT22;2160;51.172;6.808;2024-03-02T13:53:19;18.20;92.20
4293;DHT22;2160;51.172;6.808;2024-03-02T13:55:47;18.10;92.00
4293;DHT22;2160;51.172;6.808;2024-03-02T13:58:15;18.20;91.80
4293;DHT22;2160;51.172;6.808;2024-03-02T14:00:44;18.10;91.90
4293;DHT22;2160;51.172;6.808;2024-03-02T14:03:11;17.90;92.50
4293;DHT22;2160;51.172;6.808;2024-03-02T14:05:39;17.90;92.50
4293;DHT22;2160;51.172;6.808;2024-03-02T14:08:06;17.70;92.60
4293;DHT22;2160;51.172;6.808;2024-03-02T14:10:33;17.70;92.80
4293;DHT22;2160;51.172;6.808;2024-03-02T14:13:01;17.60;92.40
4293;DHT22;2160;51.172;6.808;2024-03-02T14:15:29;17.80;92.60
4293;DHT22;2160;51.172;6.808;2024-03-02T14:17:57;17.90;92.90
4293;DHT22;2160;51.172;6.808;2024-03-02T14:20:24;17.90;92.50
4293;DHT22;2160;51.172;6.808;2024-03-02T14:22:51;17.80;92.10
4293;DHT22;2160;51.172;6.808;2024-03-02T14:25:19;17.50;92.30
4293;DHT22;2160;51.172;6.808;2024-03-02T14:27:46;17.80;92.20
4293;DHT22;2160;51.172;6.808;2024-03-02T14:30:13;18.00;92.10
4293;DHT22;2160;51.172;6.808;2024-03-02T14:32:42;18.10;92.10
4293;DHT22;2160;51.172;6.808;2024-03-02T14:35:09;17.90;92.10
4293;DHT22;2160;51.172;6.808;2024-03-02T14:37:37;17.80;91.10
4293;DHT22;2160;51.172;6.808;2024-03-02T14:40:05;17.80;92.20
4293;DHT22;2160;51.172;6.808;2024-03-02T14:42:35;17.90;92.60
4293;DHT22;2160;51.172;6.808;2024-03-02T14:45:02;17.70;92.40
4293;DHT22;2160;51.172;6.808;2024-03-02T14:47:31;17.80;92.40
4293;DHT22;2160;51.172;6.808;2024-03-02T14:50:00;18.10;90.40
4293;DHT22;2160;51.172;6.808;2024-03-02T14:52:30;18.30;91.70
4293;DHT22;2160;51.172;6.808;2024-03-02T14:54:57;18.40;90.50
4293;DHT22;2160;51.172;6.808;2024-03-02T14:57:24;19.10;90.00
4293;DHT22;2160;51.172;6.808;2024-03-02T14:59:51;19.30;89.10
4293;DHT22;2160;51.172;6.808;2024-03-02T15:02:20;19.40;90.40
4293;DHT22;2160;51.172;6.808;2024-03-02T15:04:47;19.50;86.70
4293;DHT22;2160;51.172;6.808;2024-03-02T15:07:15;19.80;90.50
4293;DHT22;2160;51.172;6.808;2024-03-02T15:09:42;19.80;89.30
4293;DHT22;2160;51.172;6.808;2024-03-02T15:12:10;19.70;88.70
4293;DHT22;2160;51.172;6.808;2024-03-02T15:14:38;19.70;86.80
4293;DHT22;2160;51.172;6.808;2024-03-02T15:17:12;19.60;86.50
4293;DHT22;2160;51.172;6.808;2024-03-02T15:19:41;19.30;86.70
4293;DHT22;2160;51.172;6.808;2024-03-02T15:22:08;19.10;88.10
4293;DHT22;2160;51.172;6.808;2024-03-02T15:24:37;19.30;89.80
4293;DHT22;2160;51.172;6.808;2024-03-02T15:27:04;19.30;84.40
4293;DHT22;2160;51.172;6.808;2024-03-02T15:29:34;19.00;84.30
4293;DHT22;2160;51.172;6.808;2024-03-02T15:32:01;19.10;88.40
4293;DHT22;2160;51.172;6.808;2024-03-02T15:34:30;19.10;87.70
4293;DHT22;2160;51.172;6.808;2024-03-02T15:36:58;19.10;88.10
4293;DHT22;2160;51.172;6.808;2024-03-02T15:39:25;19.00;86.70
4293;DHT22;2160;51.172;6.808;2024-03-02T15:41:53;18.80;87.50
4293;DHT22;2160;51.172;6.808;2024-03-02T15:44:20;18.40;87.30
4293;DHT22;2160;51.172;6.808;2024-03-02T15:46:47;18.10;88.10
4293;DHT22;2160;51.172;6.808;2024-03-02T15:49:14;17.90;87.50
4293;DHT22;2160;51.172;6.808;2024-03-02T15:51:41;17.70;88.00
4293;DHT22;2160;51.172;6.808;2024-03-02T15:54:09;17.60;88.60
4293;DHT22;2160;51.172;6.808;2024-03-02T15:56:37;17.60;90.00
4293;DHT22;2160;51.172;6.808;2024-03-02T15:59:05;17.50;87.70
4293;DHT22;2160;51.172;6.808;2024-03-02T16:01:32;17.70;90.10
4293;DHT22;2160;51.172;6.808;2024-03-02T16:03:59;17.70;90.30
4293;DHT22;2160;51.172;6.808;2024-03-02T16:06:26;17.80;89.00
4293;DHT22;2160;51.172;6.808;2024-03-02T16:08:53;17.80;89.60
4293;DHT22;2160;51.172;6.808;2024-03-02T16:11:22;17.80;89.30
4293;DHT22;2160;51.172;6.808;2024-03-02T16:13:49;17.80;90.00
4293;DHT22;2160;51.172;6.808;2024-03-02T16:16:18;17.80;88.50
4293;DHT22;2160;51.172;6.808;2024-03-02T16:18:45;17.80;88.50
4293;DHT22;2160;51.172;6.808;2024-03-02T16:21:12;17.70;85.00
4293;DHT22;2160;51.172;6.808;2024-03-02T16:23:39;17.60;85.50
4293;DHT22;2160;51.172;6.808;2024-03-02T16:26:06;17.60;86.30
4293;DHT22;2160;51.172;6.808;2024-03-02T16:28:33;17.70;90.30
4293;DHT22;2160;51.172;6.808;2024-03-02T16:31:00;17.60;88.30
4293;DHT22;2160;51.172;6.808;2024-03-02T16:33:28;17.50;86.40
4293;DHT22;2160;51.172;6.808;2024-03-02T16:35:55;17.60;88.70
4293;DHT22;2160;51.172;6.808;2024-03-02T16:38:22;17.40;89.60
4293;DHT22;2160;51.172;6.808;2024-03-02T16:40:49;17.20;90.80
4293;DHT22;2160;51.172;6.808;2024-03-02T16:43:16;17.00;89.40
4293;DHT22;2160;51.172;6.808;2024-03-02T16:45:43;16.90;89.10
4293;DHT22;2160;51.172;6.808;2024-03-02T16:48:11;16.90;88.70
4293;DHT22;2160;51.172;6.808;2024-03-02T16:50:39;16.90;89.40
4293;DHT22;2160;51.172;6.808;2024-03-02T16:53:06;16.70;88.90
4293;DHT22;2160;51.172;6.808;2024-03-02T16:55:33;16.70;90.10
4293;DHT22;2160;51.172;6.808;2024-03-02T16:58:00;16.60;89.80
4293;DHT22;2160;51.172;6.808;2024-03-02T17:00:27;16.50;90.30
4293;DHT22;2160;51.172;6.808;2024-03-02T17:02:54;16.60;90.20
4293;DHT22;2160;51.172;6.808;2024-03-02T17:05:21;16.60;89.70
4293;DHT22;2160;51.172;6.808;2024-03-02T17:07:50;16.70;90.40
4293;DHT22;2160;51.172;6.808;2024-03-02T17:10:17;16.80;89.70
4293;DHT22;2160;51.172;6.808;2024-03-02T17:12:44;16.90;90.10
4293;DHT22;2160;51.172;6.808;2024-03-02T17:15:11;16.80;89.40
4293;DHT22;2160;51.172;6.808;2024-03-02T17:17:38;16.80;89.50
4293;DHT22;2160;51.172;6.808;2024-03-02T17:20:06;16.80;88.60
4293;DHT22;2160;51.172;6.808;2024-03-02T17:22:34;16.60;89.20
4293;DHT22;2160;51.172;6.808;2024-03-02T17:25:03;16.70;89.80
4293;DHT22;2160;51.172;6.808;2024-03-02T17:27:30;16.60;89.20
4293;DHT22;2160;51.172;6.808;2024-03-02T17:29:57;16.50;89.50
4293;DHT22;2160;51.172;6.808;2024-03-02T17:32:25;16.50;90.30
4293;DHT22;2160;51.172;6.808;2024-03-02T17:34:51;16.50;88.90
4293;DHT22;2160;51.172;6.808;2024-03-02T17:37:18;16.60;89.70
4293;DHT22;2160;51.172;6.808;2024-03-02T17:39:45;16.50;90.90
4293;DHT22;2160;51.172;6.808;2024-03-02T17:42:14;16.50;90.40
4293;DHT22;2160;51.172;6.808;2024-03-02T17:44:41;16.50;90.60
4293;DHT22;2160;51.172;6.808;2024-03-02T17:47:10;16.40;89.30
4293;DHT22;2160;51.172;6.808;2024-03-02T17:49:38;16.30;87.30
4293;DHT22;2160;51.172;6.808;2024-03-02T17:52:05;16.30;88.30
4293;DHT22;2160;51.172;6.808;2024-03-02T17:54:32;16.30;87.30
4293;DHT22;2160;51.172;6.808;2024-03-02T17:57:01;16.40;88.40
4293;DHT22;2160;51.172;6.808;2024-03-02T17:59:29;16.30;88.60
4293;DHT22;2160;51.172;6.808;2024-03-02T18:01:56;16.40;88.00
4293;DHT22;2160;51.172;6.808;2024-03-02T18:04:23;16.50;88.70
4293;DHT22;2160;51.172;6.808;2024-03-02T18:06:50;16.50;88.50
4293;DHT22;2160;51.172;6.808;2024-03-02T18:09:17;16.50;88.40
4293;DHT22;2160;51.172;6.808;2024-03-02T18:11:44;16.50;90.00
4293;DHT22;2160;51.172;6.808;2024-03-02T18:14:11;16.60;89.60
4293;DHT22;2160;51.172;6.808;2024-03-02T18:16:39;16.60;90.00
4293;DHT22;2160;51.172;6.808;2024-03-02T18:19:07;16.50;88.60
4293;DHT22;2160;51.172;6.808;2024-03-02T18:21:33;16.50;88.20
4293;DHT22;2160;51.172;6.808;2024-03-02T18:24:00;16.50;89.20
4293;DHT22;2160;51.172;6.808;2024-03-02T18:26:27;16.50;88.40
4293;DHT22;2160;51.172;6.808;2024-03-02T18:28:54;16.50;90.00
4293;DHT22;2160;51.172;6.808;2024-03-02T18:31:21;16.40;89.60
4293;DHT22;2160;51.172;6.808;2024-03-02T18:33:50;16.40;89.80
4293;DHT22;2160;51.172;6.808;2024-03-02T18:36:17;16.30;91.20
4293;DHT22;2160;51.172;6.808;2024-03-02T18:38:44;16.40;90.10
4293;DHT22;2160;51.172;6.808;2024-03-02T18:41:10;16.30;89.80
4293;DHT22;2160;51.172;6.808;2024-03-02T18:43:37;16.20;87.80
4293;DHT22;2160;51.172;6.808;2024-03-02T18:46:06;16.10;89.00
4293;DHT22;2160;51.172;6.808;2024-03-02T18:48:35;16.10;88.60
4293;DHT22;2160;51.172;6.808;2024-03-02T18:51:07;16.20;88.30
4293;DHT22;2160;51.172;6.808;2024-03-02T18:53:34;16.20;88.80
4293;DHT22;2160;51.172;6.808;2024-03-02T18:56:02;16.30;88.30
4293;DHT22;2160;51.172;6.808;2024-03-02T18:58:30;16.20;89.10
4293;DHT22;2160;51.172;6.808;2024-03-02T19:00:57;16.30;90.20
4293;DHT22;2160;51.172;6.808;2024-03-02T19:03:25;16.20;90.10
4293;DHT22;2160;51.172;6.808;2024-03-02T19:05:51;16.10;89.80
4293;DHT22;2160;51.172;6.808;2024-03-02T19:08:19;16.20;90.40
4293;DHT22;2160;51.172;6.808;2024-03-02T19:10:47;16.20;90.60
4293;DHT22;2160;51.172;6.808;2024-03-02T19:13:13;16.10;90.20
4293;DHT22;2160;51.172;6.808;2024-03-02T19:15:41;16.10;90.60
4293;DHT22;2160;51.172;6.808;2024-03-02T19:18:07;16.00;91.30
4293;DHT22;2160;51.172;6.808;2024-03-02T19:20:34;15.90;90.80
4293;DHT22;2160;51.172;6.808;2024-03-02T19:23:01;15.90;91.00
4293;DHT22;2160;51.172;6.808;2024-03-02T19:25:30;15.90;90.50
4293;DHT22;2160;51.172;6.808;2024-03-02T19:27:57;15.90;90.50
4293;DHT22;2160;51.172;6.808;2024-03-02T19:30:24;16.00;90.40
4293;DHT22;2160;51.172;6.808;2024-03-02T19:32:51;16.00;91.40
4293;DHT22;2160;51.172;6.808;2024-03-02T19:35:18;15.90;89.70
4293;DHT22;2160;51.172;6.808;2024-03-02T19:37:45;15.80;90.80
4293;DHT22;2160;51.172;6.808;2024-03-02T19:40:12;15.80;89.70
4293;DHT22;2160;51.172;6.808;2024-03-02T19:42:41;15.80;91.20
4293;DHT22;2160;51.172;6.808;2024-03-02T19:45:10;15.80;90.40
4293;DHT22;2160;51.172;6.808;2024-03-02T19:47:38;15.70;90.70
4293;DHT22;2160;51.172;6.808;2024-03-02T19:50:05;15.70;90.60
4293;DHT22;2160;51.172;6.808;2024-03-02T19:52:34;15.70;90.20
4293;DHT22;2160;51.172;6.808;2024-03-02T19:55:01;15.60;90.40
4293;DHT22;2160;51.172;6.808;2024-03-02T19:57:30;15.70;90.40
4293;DHT22;2160;51.172;6.808;2024-03-02T20:00:00;15.60;90.70
4293;DHT22;2160;51.172;6.808;2024-03-02T20:02:27;15.80;91.30
4293;DHT22;2160;51.172;6.808;2024-03-02T20:04:54;15.80;90.60
4293;DHT22;2160;51.172;6.808;2024-03-02T20:07:21;16.00;90.90
4293;DHT22;2160;51.172;6.808;2024-03-02T20:09:48;15.70;90.00
4293;DHT22;2160;51.172;6.808;2024-03-02T20:12:16;15.70;90.40
4293;DHT22;2160;51.172;6.808;2024-03-02T20:14:44;15.70;90.20
4293;DHT22;2160;51.172;6.808;2024-03-02T20:17:14;15.80;90.80
4293;DHT22;2160;51.172;6.808;2024-03-02T20:19:41;15.70;90.80
4293;DHT22;2160;51.172;6.808;2024-03-02T20:22:08;15.70;91.10
4293;DHT22;2160;51.172;6.808;2024-03-02T20:24:35;15.80;90.70
4293;DHT22;2160;51.172;6.808;2024-03-02T20:27:03;15.80;91.10
4293;DHT22;2160;51.172;6.808;2024-03-02T20:29:30;15.80;90.70
4293;DHT22;2160;51.172;6.808;2024-03-02T20:31:57;15.70;91.70
4293;DHT22;2160;51.172;6.808;2024-03-02T20:34:25;15.60;90.50
4293;DHT22;2160;51.172;6.808;2024-03-02T20:36:53;15.60;90.80
4293;DHT22;2160;51.172;6.808;2024-03-02T20:39:21;15.50;91.40
4293;DHT22;2160;51.172;6.808;2024-03-02T20:41:48;15.50;91.20
4293;DHT22;2160;51.172;6.808;2024-03-02T20:44:16;15.60;91.90
4293;DHT22;2160;51.172;6.808;2024-03-02T20:46:45;15.50;92.40
4293;DHT22;2160;51.172;6.808;2024-03-02T20:49:12;15.20;91.50
4293;DHT22;2160;51.172;6.808;2024-03-02T20:51:40;15.20;91.90
4293;DHT22;2160;51.172;6.808;2024-03-02T20:54:07;15.10;92.70
4293;DHT22;2160;51.172;6.808;2024-03-02T20:56:34;15.10;92.20
4293;DHT22;2160;51.172;6.808;2024-03-02T20:59:01;15.10;92.50
4293;DHT22;2160;51.172;6.808;2024-03-02T21:01:30;15.10;92.00
4293;DHT22;2160;51.172;6.808;2024-03-02T21:03:57;15.00;92.60
4293;DHT22;2160;51.172;6.808;2024-03-02T21:06:24;15.00;92.90
4293;DHT22;2160;51.172;6.808;2024-03-02T21:08:52;15.10;92.90